Time;durP1;ratioP1;P1;durP2;ratioP2;P2;SDS_P1;SDS_P2;PMS_P1;PMS_P2;Temp;Humidity;BMP_temperature;BMP_pressure;BME280_temperature;BME280_humidity;BME280_pressure;Samples;Min_cycle;Max_cycle;Signal;HPM_P1;HPM_P2
2023/09/13 00:00:00;;;;;;;;;;;;;;;20.34;41.09;100125.28;4953478;27;98490;-75
2023/09/13 00:02:27;;;;;;;;;;;;;;;20.31;40.96;100120.47;4930212;28;98499;-75
2023/09/13 00:04:56;;;;;;;;;;;;;;;20.28;41.09;100114.91;4948853;28;98739;-75
2023/09/13 00:07:23;;;;;;;;;;;;;;;20.25;41.04;100119.13;4940909;27;98969;-69
2023/09/13 00:09:49;;;;;;;;;;;;;;;20.22;41.11;100117.06;4935833;28;98670;-75
2023/09/13 00:12:16;;;;;;;;;;;;;;;20.20;40.89;100113.06;4962757;28;98163;-75
2023/09/13 00:14:42;;;;;;;;;;;;;;;20.16;41.11;100112.97;4946165;27;98106;-68
2023/09/13 00:17:11;;;;;;;;;;;;;;;20.13;40.96;100116.38;4943404;27;99920;-75
2023/09/13 00:19:38;;;;;;;;;;;;;;;20.11;41.08;100116.69;4947312;28;98850;-74
2023/09/13 00:22:05;;;;;;;;;;;;;;;20.09;40.97;100108.03;4951561;27;98020;-68
2023/09/13 00:24:31;;;;;;;;;;;;;;;20.10;41.07;100103.38;4952741;27;98679;-68
2023/09/13 00:26:59;;;;;;;;;;;;;;;20.08;41.13;100100.16;4948344;27;98346;-68
2023/09/13 00:29:25;;;;;;;;;;;;;;;20.06;41.08;100096.97;4925090;27;99652;-68
2023/09/13 00:31:55;;;;;;;;;;;;;;;20.04;41.08;100100.06;4931940;28;99406;-75
2023/09/13 00:34:23;;;;;;;;;;;;;;;20.01;41.21;100098.00;4930665;28;98364;-68
2023/09/13 00:36:49;;;;;;;;;;;;;;;19.99;41.08;100096.72;4931016;27;99254;-75
2023/09/13 00:39:17;;;;;;;;;;;;;;;19.97;41.22;100096.28;4947459;28;98472;-68
2023/09/13 00:41:44;;;;;;;;;;;;;;;19.93;41.11;100095.38;4949079;27;98174;-68
2023/09/13 00:44:11;;;;;;;;;;;;;;;19.91;41.19;100094.91;4947585;28;98418;-68
2023/09/13 00:46:38;;;;;;;;;;;;;;;19.90;41.08;100090.56;4928919;27;98602;-68
2023/09/13 00:49:06;;;;;;;;;;;;;;;19.89;41.18;100097.97;4931961;28;99494;-68
2023/09/13 00:51:33;;;;;;;;;;;;;;;19.89;41.13;100086.25;4950305;28;98734;-74
2023/09/13 00:54:04;;;;;;;;;;;;;;;19.89;41.09;100099.91;4960191;28;98452;-74
2023/09/13 00:56:31;;;;;;;;;;;;;;;19.87;41.31;100105.72;4948922;28;98309;-68
2023/09/13 00:58:59;;;;;;;;;;;;;;;19.84;41.20;100111.84;4924044;28;98529;-74
2023/09/13 01:01:27;;;;;;;;;;;;;;;19.82;41.15;100112.19;4948736;27;99053;-68
2023/09/13 01:03:54;;;;;;;;;;;;;;;19.80;41.09;100117.19;4929621;28;98283;-68
2023/09/13 01:06:20;;;;;;;;;;;;;;;19.78;41.15;100114.00;4922858;27;105063;-68
2023/09/13 01:08:47;;;;;;;;;;;;;;;19.77;41.17;100119.81;4929175;28;98105;-68
2023/09/13 01:11:13;;;;;;;;;;;;;;;19.80;41.23;100119.13;4936660;27;98008;-74
2023/09/13 01:13:40;;;;;;;;;;;;;;;19.85;41.27;100122.47;4944319;28;98219;-69
2023/09/13 01:16:16;;;;;;;;;;;;;;;19.94;41.30;100136.03;4932824;28;98195;-75
2023/09/13 01:19:04;;;;;;;;;;;;;;;20.03;41.26;100144.16;4972701;27;98009;-75
2023/09/13 01:21:55;;;;;;;;;;;;;;;20.11;41.23;100163.19;4947263;27;99495;-68
2023/09/13 01:24:58;;;;;;;;;;;;;;;20.17;41.24;100264.25;4941583;28;97970;-68
2023/09/13 01:27:44;;;;;;;;;;;;;;;20.21;41.12;100177.59;4955842;28;100110;-68
2023/09/13 01:30:11;;;;;;;;;;;;;;;20.23;41.29;100235.50;4947013;28;97914;-74
2023/09/13 01:32:37;;;;;;;;;;;;;;;20.23;41.19;100198.00;4929396;28;98500;-68
2023/09/13 01:35:03;;;;;;;;;;;;;;;20.28;41.21;100216.97;4946907;27;98063;-69
2023/09/13 01:37:31;;;;;;;;;;;;;;;20.31;41.29;100199.03;4962285;27;98534;-68
2023/09/13 01:39:57;;;;;;;;;;;;;;;20.33;41.28;100202.25;4926148;28;98736;-68
2023/09/13 01:42:24;;;;;;;;;;;;;;;20.36;41.28;100190.63;4935360;28;97954;-68
2023/09/13 01:44:51;;;;;;;;;;;;;;;20.41;41.21;100206.84;4965321;28;98928;-75
2023/09/13 01:47:19;;;;;;;;;;;;;;;20.44;41.34;100208.09;4967585;28;98171;-76
2023/09/13 01:49:46;;;;;;;;;;;;;;;20.48;41.22;100198.88;4966182;27;100490;-75
2023/09/13 01:52:12;;;;;;;;;;;;;;;20.52;41.36;100185.31;4928585;28;98960;-68
2023/09/13 01:54:39;;;;;;;;;;;;;;;20.56;41.28;100186.25;4936710;27;99509;-68
2023/09/13 01:57:06;;;;;;;;;;;;;;;20.58;41.21;100184.75;4964354;28;100037;-75
2023/09/13 01:59:34;;;;;;;;;;;;;;;20.61;41.21;100168.78;4946795;27;100494;-75
2023/09/13 02:02:00;;;;;;;;;;;;;;;20.62;41.28;100159.44;4945475;28;98084;-68
2023/09/13 02:04:32;;;;;;;;;;;;;;;20.63;41.24;100170.03;4927224;27;97980;-75
2023/09/13 02:07:03;;;;;;;;;;;;;;;20.64;41.30;100168.91;4937318;28;98216;-75
2023/09/13 02:09:29;;;;;;;;;;;;;;;20.63;41.33;100163.75;4935502;27;97967;-75
2023/09/13 02:11:57;;;;;;;;;;;;;;;20.61;41.34;100155.91;4946703;28;100046;-75
2023/09/13 02:14:23;;;;;;;;;;;;;;;20.60;41.31;100159.78;4933021;27;97988;-68
2023/09/13 02:16:52;;;;;;;;;;;;;;;20.60;41.26;100159.78;4945204;28;99652;-75
2023/09/13 02:19:19;;;;;;;;;;;;;;;20.58;41.21;100154.63;4928929;28;98215;-68
2023/09/13 02:21:46;;;;;;;;;;;;;;;20.59;41.36;100149.94;4928698;27;98047;-75
2023/09/13 02:24:13;;;;;;;;;;;;;;;20.57;41.27;100135.81;4931903;28;98279;-68
2023/09/13 02:26:40;;;;;;;;;;;;;;;20.58;41.35;100120.97;4935853;27;100171;-75
2023/09/13 02:29:06;;;;;;;;;;;;;;;20.55;41.34;100117.00;4944596;28;99969;-75
2023/09/13 02:31:32;;;;;;;;;;;;;;;20.53;41.33;100115.75;4946003;27;98423;-68
2023/09/13 02:33:59;;;;;;;;;;;;;;;20.54;41.41;100106.38;4928507;28;100059;-75
2023/09/13 02:36:26;;;;;;;;;;;;;;;;;;4926915;28;98463;-70
2023/09/13 02:38:52;;;;;;;;;;;;;;;20.50;41.41;100108.22;4945393;28;100324;-75
2023/09/13 02:41:19;;;;;;;;;;;;;;;20.49;41.25;100103.88;4927657;28;100059;-74
2023/09/13 02:43:45;;;;;;;;;;;;;;;20.47;41.48;100071.31;4929597;28;98712;-68
2023/09/13 02:46:12;;;;;;;;;;;;;;;20.47;41.47;100070.53;4926105;27;98119;-75
2023/09/13 02:48:40;;;;;;;;;;;;;;;20.44;41.62;100072.03;4969847;27;101511;-75
2023/09/13 02:51:13;;;;;;;;;;;;;;;20.41;41.46;100129.41;4927524;28;98459;-74
2023/09/13 02:53:39;;;;;;;;;;;;;;;20.38;41.48;100193.81;4925585;28;98171;-70
2023/09/13 02:56:09;;;;;;;;;;;;;;;20.35;41.47;100210.91;4944079;28;98525;-74
2023/09/13 02:58:37;;;;;;;;;;;;;;;20.35;41.54;100210.91;4924437;27;98037;-73
2023/09/13 03:01:07;;;;;;;;;;;;;;;20.34;41.53;100220.25;4940203;27;98322;-69
2023/09/13 03:03:34;;;;;;;;;;;;;;;20.32;41.62;100253.47;4926205;28;99540;-74
2023/09/13 03:06:10;;;;;;;;;;;;;;;20.32;41.65;100252.66;4931905;28;98406;-69
2023/09/13 03:08:37;;;;;;;;;;;;;;;20.27;41.73;100226.28;4948771;28;98202;-73
2023/09/13 03:11:14;;;;;;;;;;;;;;;20.22;41.69;100196.41;4929934;27;97904;-69
2023/09/13 03:13:40;;;;;;;;;;;;;;;20.13;41.64;100184.78;4944241;28;98147;-69
2023/09/13 03:16:18;;;;;;;;;;;;;;;20.07;41.70;100161.50;4945856;27;116566;-74
2023/09/13 03:18:46;;;;;;;;;;;;;;;20.03;41.82;100163.31;4927253;28;98102;-69
2023/09/13 03:21:12;;;;;;;;;;;;;;;19.99;41.92;100135.03;4931313;27;99453;-73
2023/09/13 03:23:42;;;;;;;;;;;;;;;19.98;41.76;100125.22;4944321;28;98220;-74
2023/09/13 03:26:13;;;;;;;;;;;;;;;19.95;41.81;100134.09;4928895;27;99614;-74
2023/09/13 03:28:42;;;;;;;;;;;;;;;19.93;41.97;100141.88;4946601;28;98121;-69
2023/09/13 03:31:11;;;;;;;;;;;;;;;19.90;41.86;100131.59;4929733;27;98608;-68
2023/09/13 03:33:39;;;;;;;;;;;;;;;19.88;42.01;100140.13;4953485;28;98179;-69
2023/09/13 03:36:09;;;;;;;;;;;;;;;19.85;41.96;100130.66;4955047;27;98160;-68
2023/09/13 03:38:40;;;;;;;;;;;;;;;19.85;41.94;100114.25;4930812;28;98260;-74
2023/09/13 03:41:08;;;;;;;;;;;;;;;19.84;41.97;100112.63;4944067;27;98154;-75
2023/09/13 03:43:35;;;;;;;;;;;;;;;19.86;41.92;100118.59;4929611;28;98356;-74
2023/09/13 03:46:03;;;;;;;;;;;;;;;19.86;41.90;100135.00;4925989;28;98139;-69
2023/09/13 03:48:33;;;;;;;;;;;;;;;19.86;42.01;100143.19;4960468;28;98720;-74
2023/09/13 03:51:00;;;;;;;;;;;;;;;19.82;42.15;100134.06;4964186;27;98291;-68
2023/09/13 03:53:26;;;;;;;;;;;;;;;19.79;41.98;100134.75;4928263;28;98057;-74
2023/09/13 03:55:53;;;;;;;;;;;;;;;19.79;42.03;100133.94;4927866;27;98583;-74
2023/09/13 03:58:21;;;;;;;;;;;;;;;19.75;41.91;100136.56;4946183;28;98059;-74
2023/09/13 04:00:48;;;;;;;;;;;;;;;19.75;42.10;100143.97;4942147;28;98550;-74
2023/09/13 04:03:15;;;;;;;;;;;;;;;19.75;42.10;100138.50;4946455;27;98267;-69
2023/09/13 04:05:42;;;;;;;;;;;;;;;19.72;42.09;100137.22;4955394;28;98267;-69
2023/09/13 04:08:08;;;;;;;;;;;;;;;19.70;42.02;100133.25;4928095;28;98099;-75
2023/09/13 04:10:36;;;;;;;;;;;;;;;19.67;42.06;100125.69;4942777;27;98163;-69
2023/09/13 04:13:04;;;;;;;;;;;;;;;19.65;42.16;100119.75;4932561;27;98267;-75
2023/09/13 04:15:30;;;;;;;;;;;;;;;19.65;42.07;100122.50;4946848;28;98040;-69
2023/09/13 04:17:58;;;;;;;;;;;;;;;19.64;42.19;100127.16;4944940;28;98513;-75
2023/09/13 04:20:26;;;;;;;;;;;;;;;19.63;42.32;100122.84;4920521;28;99713;-75
2023/09/13 04:22:53;;;;;;;;;;;;;;;19.61;42.14;100133.28;4943236;27;98050;-75
2023/09/13 04:25:20;;;;;;;;;;;;;;;19.60;42.11;100134.41;4920890;27;99804;-74
2023/09/13 04:27:48;;;;;;;;;;;;;;;19.60;42.15;100137.16;4944219;28;99331;-74
2023/09/13 04:30:16;;;;;;;;;;;;;;;19.60;42.21;100139.88;4930181;28;98605;-68
2023/09/13 04:32:43;;;;;;;;;;;;;;;19.59;42.10;100146.47;4931203;28;99193;-68
2023/09/13 04:35:11;;;;;;;;;;;;;;;19.56;42.11;100144.41;4906485;28;98291;-68
2023/09/13 04:37:38;;;;;;;;;;;;;;;19.54;42.40;100139.28;4907612;28;98037;-74
2023/09/13 04:40:06;;;;;;;;;;;;;;;19.51;42.20;100137.22;4908843;28;98697;-68
2023/09/13 04:42:49;;;;;;;;;;;;;;;19.52;42.30;100146.22;4911209;28;100122;-74
2023/09/13 04:45:17;;;;;;;;;;;;;;;19.52;42.32;100151.69;4910543;28;98812;-75
2023/09/13 04:47:45;;;;;;;;;;;;;;;19.52;42.30;100143.50;4923403;28;98539;-75
2023/09/13 04:50:12;;;;;;;;;;;;;;;19.53;42.18;100147.81;4906805;28;98170;-75
2023/09/13 04:52:39;;;;;;;;;;;;;;;19.53;42.34;100147.81;4908950;28;99625;-75
2023/09/13 04:55:08;;;;;;;;;;;;;;;19.55;42.32;100151.81;4935486;28;98374;-68
2023/09/13 04:57:36;;;;;;;;;;;;;;;19.56;42.16;100152.63;4909770;28;98648;-68
2023/09/13 05:00:10;;;;;;;;;;;;;;;19.55;42.20;100160.03;4942852;28;99112;-68
2023/09/13 05:02:40;;;;;;;;;;;;;;;19.55;42.34;100160.03;4932053;28;97859;-75
2023/09/13 05:05:07;;;;;;;;;;;;;;;19.58;42.31;100159.34;4932431;28;100984;-75
2023/09/13 05:07:35;;;;;;;;;;;;;;;19.60;42.25;100167.22;4932457;28;99894;-75
2023/09/13 05:10:03;;;;;;;;;;;;;;;19.59;42.20;100158.22;4914807;28;98555;-69
2023/09/13 05:12:33;;;;;;;;;;;;;;;19.61;42.31;100158.72;4931630;28;99804;-69
2023/09/13 05:14:59;;;;;;;;;;;;;;;19.62;42.37;100159.53;4929423;28;98745;-69
2023/09/13 05:17:29;;;;;;;;;;;;;;;19.65;42.07;100158.03;4910286;28;97919;-68
2023/09/13 05:19:56;;;;;;;;;;;;;;;19.68;42.34;100146.44;4909247;28;98809;-72
2023/09/13 05:22:23;;;;;;;;;;;;;;;19.73;42.14;100146.22;4909390;28;98851;-75
2023/09/13 05:24:50;;;;;;;;;;;;;;;19.78;42.12;100154.22;4906924;28;98539;-69
2023/09/13 05:27:16;;;;;;;;;;;;;;;19.84;42.05;100156.41;4918546;28;98532;-69
2023/09/13 05:29:43;;;;;;;;;;;;;;;19.91;42.18;100150.38;4922425;28;100896;-75
2023/09/13 05:32:10;;;;;;;;;;;;;;;20.01;41.98;100160.13;4909770;28;98651;-75
2023/09/13 05:34:38;;;;;;;;;;;;;;;20.12;41.93;100158.53;4924078;28;98902;-75
2023/09/13 05:37:07;;;;;;;;;;;;;;;20.22;41.77;100166.31;4937817;28;99396;-75
2023/09/13 05:39:34;;;;;;;;;;;;;;;20.33;41.77;100180.38;4908024;28;98600;-69
2023/09/13 05:42:03;;;;;;;;;;;;;;;20.42;41.89;100175.56;4909969;28;98217;-74
2023/09/13 05:44:31;;;;;;;;;;;;;;;20.47;41.74;100180.81;4911328;28;98278;-72
2023/09/13 05:46:57;;;;;;;;;;;;;;;20.53;41.85;100178.72;4911903;28;98253;-75
2023/09/13 05:49:24;;;;;;;;;;;;;;;20.57;41.77;100190.56;4919203;28;98126;-75
2023/09/13 05:51:51;;;;;;;;;;;;;;;20.63;41.79;100186.44;4926831;28;99250;-69
2023/09/13 05:54:18;;;;;;;;;;;;;;;20.67;41.84;100187.41;4923976;28;98661;-75
2023/09/13 05:56:45;;;;;;;;;;;;;;;20.71;41.84;100188.31;4911733;28;98831;-75
2023/09/13 05:59:12;;;;;;;;;;;;;;;20.76;41.85;100193.56;4914104;28;98072;-69
2023/09/13 06:01:40;;;;;;;;;;;;;;;20.80;41.80;100188.19;4930333;28;98216;-68
2023/09/13 06:04:07;;;;;;;;;;;;;;;20.88;41.79;100197.44;4929316;28;98030;-75
2023/09/13 06:06:34;;;;;;;;;;;;;;;20.96;41.69;100191.03;4927228;28;97958;-75
2023/09/13 06:09:03;;;;;;;;;;;;;;;21.00;41.78;100192.75;4912027;28;97969;-69
2023/09/13 06:11:31;;;;;;;;;;;;;;;21.07;41.73;100194.91;4905051;28;98334;-69
2023/09/13 06:13:58;;;;;;;;;;;;;;;21.14;41.74;100197.84;4911347;28;100428;-76
2023/09/13 06:16:25;;;;;;;;;;;;;;;21.19;41.81;100196.84;4922083;28;99276;-75
2023/09/13 06:18:53;;;;;;;;;;;;;;;21.26;41.71;100197.03;4914487;28;97786;-76
2023/09/13 06:21:21;;;;;;;;;;;;;;;21.32;41.58;100190.19;4922670;28;99500;-76
2023/09/13 06:23:49;;;;;;;;;;;;;;;21.36;41.60;100193.84;4908600;28;98393;-76
2023/09/13 06:26:15;;;;;;;;;;;;;;;21.37;41.79;100206.41;4909720;28;100142;-68
2023/09/13 06:28:42;;;;;;;;;;;;;;;21.40;41.78;100199.44;4925412;28;98766;-76
2023/09/13 06:31:09;;;;;;;;;;;;;;;21.36;41.76;100213.03;4909736;28;98245;-68
2023/09/13 06:33:36;;;;;;;;;;;;;;;21.34;41.87;100212.59;4924156;28;98642;-76
2023/09/13 06:36:03;;;;;;;;;;;;;;;21.37;41.98;100216.56;4939865;28;100555;-76
2023/09/13 06:38:31;;;;;;;;;;;;;;;21.43;41.89;100209.72;4910773;28;98333;-69
2023/09/13 06:40:58;;;;;;;;;;;;;;;21.51;41.78;100212.31;4911677;28;100822;-76
2023/09/13 06:43:25;;;;;;;;;;;;;;;21.64;41.73;100217.78;4925881;28;99424;-69
2023/09/13 06:45:51;;;;;;;;;;;;;;;21.80;41.45;100218.63;4922150;28;98383;-69
2023/09/13 06:48:19;;;;;;;;;;;;;;;21.96;41.55;100218.69;4909637;28;99836;-76
2023/09/13 06:50:47;;;;;;;;;;;;;;;22.13;41.38;100217.59;4907170;28;98289;-76
2023/09/13 06:53:13;;;;;;;;;;;;;;;22.26;41.44;100219.94;4936831;28;98025;-68
2023/09/13 06:55:41;;;;;;;;;;;;;;;22.42;41.25;100216.41;4927135;28;98206;-76
2023/09/13 06:58:07;;;;;;;;;;;;;;;22.67;41.24;100223.31;4921395;28;101046;-76
2023/09/13 07:00:34;;;;;;;;;;;;;;;23.02;40.92;100226.16;4911150;28;97871;-68
2023/09/13 07:03:02;;;;;;;;;;;;;;;23.35;40.79;100224.97;4909509;28;99749;-68
2023/09/13 07:05:29;;;;;;;;;;;;;;;23.58;40.54;100232.50;4930099;28;98571;-76
2023/09/13 07:07:56;;;;;;;;;;;;;;;23.44;40.80;100236.53;4929393;28;98484;-68
2023/09/13 07:10:23;;;;;;;;;;;;;;;23.20;41.52;100234.84;4911340;28;100030;-76
2023/09/13 07:12:52;;;;;;;;;;;;;;;23.02;41.61;100242.66;4911357;28;100230;-68
2023/09/13 07:15:20;;;;;;;;;;;;;;;23.05;41.24;100240.34;4953195;28;97821;-76
2023/09/13 07:17:47;;;;;;;;;;;;;;;23.13;41.45;100244.88;4911534;28;98494;-68
2023/09/13 07:20:18;;;;;;;;;;;;;;;23.27;41.37;100251.50;4936050;28;98142;-76
2023/09/13 07:22:44;;;;;;;;;;;;;;;23.42;41.33;100262.81;4912961;28;98539;-76
2023/09/13 07:25:10;;;;;;;;;;;;;;;23.51;41.26;100258.72;4924364;28;99596;-68
2023/09/13 07:27:37;;;;;;;;;;;;;;;23.80;41.02;100256.59;4924282;28;98741;-76
2023/09/13 07:30:09;;;;;;;;;;;;;;;23.94;40.80;100258.84;4904135;28;99980;-75
2023/09/13 07:32:36;;;;;;;;;;;;;;;24.00;40.95;100249.91;4926003;28;98847;-68
2023/09/13 07:35:03;;;;;;;;;;;;;;;24.32;40.63;100252.50;4921914;28;98151;-68
2023/09/13 07:37:31;;;;;;;;;;;;;;;24.66;40.31;100258.25;4929482;28;99192;-75
2023/09/13 07:39:58;;;;;;;;;;;;;;;24.61;40.67;100261.31;4908999;28;100344;-68
2023/09/13 07:42:26;;;;;;;;;;;;;;;24.57;40.58;100261.25;4908150;28;98243;-75
2023/09/13 07:44:52;;;;;;;;;;;;;;;24.49;40.99;100265.03;4905675;28;98422;-75
2023/09/13 07:47:18;;;;;;;;;;;;;;;24.43;40.92;100258.22;4927168;28;98513;-75
2023/09/13 07:49:45;;;;;;;;;;;;;;;24.43;40.82;100263.75;4926419;28;98383;-75
2023/09/13 07:52:11;;;;;;;;;;;;;;;24.64;40.97;100261.38;4910203;28;98273;-76
2023/09/13 07:54:38;;;;;;;;;;;;;;;24.98;40.40;100270.59;4924156;28;98645;-76
2023/09/13 07:57:04;;;;;;;;;;;;;;;24.90;40.66;100276.38;4929857;28;99393;-75
2023/09/13 07:59:31;;;;;;;;;;;;;;;25.46;40.06;100283.94;4921759;28;98083;-75
2023/09/13 08:01:58;;;;;;;;;;;;;;;25.92;39.86;100283.81;4919367;28;98481;-68
2023/09/13 08:04:24;;;;;;;;;;;;;;;26.42;39.47;100299.00;4925564;28;97969;-75
2023/09/13 08:06:50;;;;;;;;;;;;;;;26.91;39.00;100302.63;4931982;28;98109;-68
2023/09/13 08:09:18;;;;;;;;;;;;;;;27.36;38.98;100293.13;4908653;28;98341;-68
2023/09/13 08:11:46;;;;;;;;;;;;;;;27.80;38.79;100302.50;4904999;28;98243;-75
2023/09/13 08:14:13;;;;;;;;;;;;;;;28.19;38.53;100297.13;4921893;28;99822;-67
2023/09/13 08:16:39;;;;;;;;;;;;;;;28.78;38.24;100303.22;4920741;28;98679;-68
2023/09/13 08:19:08;;;;;;;;;;;;;;;29.04;38.45;100309.56;4914422;28;98357;-75
2023/09/13 08:21:34;;;;;;;;;;;;;;;28.99;38.53;100312.75;4918693;28;98174;-68
2023/09/13 08:24:03;;;;;;;;;;;;;;;28.35;39.51;100310.63;4903816;28;98134;-68
2023/09/13 08:26:30;;;;;;;;;;;;;;;27.96;39.70;100321.56;4907474;28;98251;-75
2023/09/13 08:28:57;;;;;;;;;;;;;;;27.59;40.23;100309.50;4935015;28;97907;-76
2023/09/13 08:31:25;;;;;;;;;;;;;;;27.25;40.26;100317.16;4904565;28;100866;-68
2023/09/13 08:33:55;;;;;;;;;;;;;;;27.00;40.61;100305.06;4926814;28;98362;-75
2023/09/13 08:36:22;;;;;;;;;;;;;;;26.87;40.69;100307.34;4922669;28;98455;-68
2023/09/13 08:38:49;;;;;;;;;;;;;;;26.64;40.69;100308.31;4921942;28;98070;-68
2023/09/13 08:41:16;;;;;;;;;;;;;;;26.33;40.80;100305.97;4918072;28;98952;-68
2023/09/13 08:43:43;;;;;;;;;;;;;;;26.06;41.12;100308.06;4920514;28;98055;-68
2023/09/13 08:46:10;;;;;;;;;;;;;;;25.89;41.22;100307.44;4908776;28;97856;-68
2023/09/13 08:48:38;;;;;;;;;;;;;;;25.89;40.96;100304.66;4909318;28;98248;-75
2023/09/13 08:51:05;;;;;;;;;;;;;;;26.55;40.25;100315.31;4925702;28;98810;-75
2023/09/13 08:53:33;;;;;;;;;;;;;;;28.59;38.17;100317.44;4925568;28;98490;-68
2023/09/13 08:56:00;;;;;;;;;;;;;;;29.47;37.53;100317.84;4929177;28;97922;-73
2023/09/13 08:58:27;;;;;;;;;;;;;;;28.30;38.98;100324.88;4913328;28;98138;-69
2023/09/13 09:00:53;;;;;;;;;;;;;;;27.75;39.75;100320.28;4925285;28;99680;-75
2023/09/13 09:03:22;;;;;;;;;;;;;;;27.29;40.46;100331.81;4933921;28;98383;-68
2023/09/13 09:05:49;;;;;;;;;;;;;;;26.96;40.50;100329.13;4934536;28;98184;-75
2023/09/13 09:08:17;;;;;;;;;;;;;;;26.76;40.72;100328.56;4907932;28;98495;-75
2023/09/13 09:10:43;;;;;;;;;;;;;;;26.68;40.72;100324.91;4934236;28;100342;-75
2023/09/13 09:13:10;;;;;;;;;;;;;;;26.70;40.69;100328.13;4924665;28;99844;-68
2023/09/13 09:15:37;;;;;;;;;;;;;;;27.03;40.05;100331.97;4918654;28;98302;-75
2023/09/13 09:18:06;;;;;;;;;;;;;;;27.58;39.51;100324.50;4922248;28;98114;-68
2023/09/13 09:20:32;;;;;;;;;;;;;;;27.89;39.47;100327.84;4905754;28;98012;-68
2023/09/13 09:22:59;;;;;;;;;;;;;;;29.13;38.21;100343.28;4922388;28;100586;-68
2023/09/13 09:25:25;;;;;;;;;;;;;;;30.19;37.27;100341.50;4910601;28;97894;-68
2023/09/13 09:27:52;;;;;;;;;;;;;;;31.54;36.53;100334.19;4919569;28;99254;-68
2023/09/13 09:30:27;;;;;;;;;;;;;;;31.44;36.88;100342.66;4935050;28;99444;-68
2023/09/13 09:33:01;;;;;;;;;;;;;;;31.69;37.19;100337.63;4910309;28;98486;-69
2023/09/13 09:35:28;;;;;;;;;;;;;;;33.46;35.30;100345.94;4923060;28;98113;-75
2023/09/13 09:37:54;;;;;;;;;;;;;;;34.17;35.26;100343.78;4908037;28;98242;-69
2023/09/13 09:40:20;;;;;;;;;;;;;;;34.95;35.06;100341.22;4920710;28;100022;-76
2023/09/13 09:42:56;;;;;;;;;;;;;;;34.98;35.65;100350.72;4943976;28;98078;-76
2023/09/13 09:45:23;;;;;;;;;;;;;;;35.89;35.05;100351.59;4908068;28;98888;-69
2023/09/13 09:47:53;;;;;;;;;;;;;;;35.12;35.91;100361.63;4909127;28;97963;-75
2023/09/13 09:50:20;;;;;;;;;;;;;;;35.02;36.05;100349.47;4924710;28;98522;-73
2023/09/13 09:52:50;;;;;;;;;;;;;;;33.97;37.26;100352.16;4911221;28;98379;-73
2023/09/13 09:55:21;;;;;;;;;;;;;;;33.49;37.77;100355.47;4938125;28;98392;-76
2023/09/13 09:57:49;;;;;;;;;;;;;;;32.98;37.85;100344.34;4923287;28;98043;-74
2023/09/13 10:00:16;;;;;;;;;;;;;;;32.63;38.17;100348.44;4908742;28;98224;-68
2023/09/13 10:02:45;;;;;;;;;;;;;;;32.01;38.67;100340.06;4925271;28;98949;-68
2023/09/13 10:05:16;;;;;;;;;;;;;;;31.47;39.26;100334.25;4908293;28;98371;-68
2023/09/13 10:07:56;;;;;;;;;;;;;;;31.13;39.27;100350.09;4922956;28;99393;-74
2023/09/13 10:10:30;;;;;;;;;;;;;;;31.03;39.31;100343.38;4925073;28;99687;-74
2023/09/13 10:12:56;;;;;;;;;;;;;;;32.01;38.04;100347.63;4910253;28;98269;-68
2023/09/13 10:15:22;;;;;;;;;;;;;;;33.26;37.08;100361.84;4909090;28;98397;-68
2023/09/13 10:17:49;;;;;;;;;;;;;;;34.32;35.95;100361.81;4918061;28;97870;-69
2023/09/13 10:20:19;;;;;;;;;;;;;;;34.15;36.55;100371.34;4929017;28;98991;-69
2023/09/13 10:22:49;;;;;;;;;;;;;;;35.40;35.54;100360.09;4908279;28;98225;-74
2023/09/13 10:25:17;;;;;;;;;;;;;;;33.55;37.27;100359.34;4928740;28;98525;-70
2023/09/13 10:27:46;;;;;;;;;;;;;;;32.44;38.88;100358.28;4913032;28;98353;-74
2023/09/13 10:30:12;;;;;;;;;;;;;;;31.86;39.13;100360.16;4918606;28;98475;-74
2023/09/13 10:32:50;;;;;;;;;;;;;;;31.24;39.52;100364.69;4936614;28;98323;-74
2023/09/13 10:35:18;;;;;;;;;;;;;;;31.73;38.80;100371.00;4926936;28;98780;-69
2023/09/13 10:38:19;;;;;;;;;;;;;;;31.20;39.51;100375.06;4925281;28;98572;-70
2023/09/13 10:40:50;;;;;;;;;;;;;;;30.67;39.67;100370.66;4932164;28;98848;-69
2023/09/13 10:43:17;;;;;;;;;;;;;;;30.48;39.67;100371.94;4929241;28;98273;-68
2023/09/13 10:45:44;;;;;;;;;;;;;;;30.62;39.32;100377.44;4912533;28;97866;-69
2023/09/13 10:48:10;;;;;;;;;;;;;;;30.14;40.02;100380.00;4910456;28;101025;-75
2023/09/13 10:50:39;;;;;;;;;;;;;;;29.67;40.27;100382.09;4921855;28;98227;-75
2023/09/13 10:53:05;;;;;;;;;;;;;;;31.46;38.00;100382.03;4929456;28;99951;-69
2023/09/13 10:55:33;;;;;;;;;;;;;;;32.10;37.21;100386.94;4924658;28;98418;-69
2023/09/13 10:58:00;;;;;;;;;;;;;;;33.12;36.30;100396.34;4924204;28;98653;-70
2023/09/13 11:00:34;;;;;;;;;;;;;;;33.58;36.12;100384.41;4907561;28;98260;-74
2023/09/13 11:03:00;;;;;;;;;;;;;;;34.08;36.29;100403.06;4924860;28;98292;-75
2023/09/13 11:05:27;;;;;;;;;;;;;;;33.46;36.91;100399.00;4907884;28;98192;-74
2023/09/13 11:07:53;;;;;;;;;;;;;;;34.66;35.79;100403.47;4927646;28;98111;-74
2023/09/13 11:10:20;;;;;;;;;;;;;;;34.07;36.68;100400.69;4921479;28;104897;-69
2023/09/13 11:12:50;;;;;;;;;;;;;;;33.35;37.49;100403.94;4904706;28;98327;-69
2023/09/13 11:15:20;;;;;;;;;;;;;;;32.65;38.60;100405.38;4919295;28;98306;-75
2023/09/13 11:17:47;;;;;;;;;;;;;;;32.05;38.72;100408.91;4941251;28;98124;-74
2023/09/13 11:20:32;;;;;;;;;;;;;;;31.81;38.81;100407.94;4920726;28;99152;-69
2023/09/13 11:23:18;;;;;;;;;;;;;;;31.51;38.98;100412.19;4924349;28;98241;-74
2023/09/13 11:25:54;;;;;;;;;;;;;;;32.02;38.51;100414.09;4920147;28;98446;-75
2023/09/13 11:28:39;;;;;;;;;;;;;;;31.56;39.13;100414.56;4905746;28;100805;-75
2023/09/13 11:31:06;;;;;;;;;;;;;;;31.33;39.01;100412.38;4953054;28;99307;-70
2023/09/13 11:33:46;;;;;;;;;;;;;;;31.70;38.34;100419.97;4925183;28;98067;-70
2023/09/13 11:36:20;;;;;;;;;;;;;;;31.09;39.00;100414.13;4935795;28;100154;-75
2023/09/13 11:38:51;;;;;;;;;;;;;;;30.90;39.21;100406.28;4925735;28;98708;-70
2023/09/13 11:41:17;;;;;;;;;;;;;;;32.75;37.01;100412.03;4921161;28;98217;-75
2023/09/13 11:43:44;;;;;;;;;;;;;;;32.60;37.69;100410.66;4907631;28;99307;-70
2023/09/13 11:46:12;;;;;;;;;;;;;;;33.46;36.59;100418.56;4911711;28;98358;-75
2023/09/13 11:48:41;;;;;;;;;;;;;;;34.10;36.20;100422.19;4924012;28;100106;-69
2023/09/13 11:51:17;;;;;;;;;;;;;;;34.40;36.14;100416.38;4920596;28;99216;-75
2023/09/13 11:53:44;;;;;;;;;;;;;;;34.71;36.23;100415.38;4907671;28;97993;-73
2023/09/13 11:56:33;;;;;;;;;;;;;;;34.88;36.36;100408.56;4921627;28;99694;-68
2023/09/13 11:59:00;;;;;;;;;;;;;;;35.27;36.13;100413.25;4921446;28;98235;-73
2023/09/13 12:01:28;;;;;;;;;;;;;;;34.06;37.40;100430.66;4937577;28;98904;-73
2023/09/13 12:03:54;;;;;;;;;;;;;;;33.47;37.85;100418.13;4922595;28;98238;-69
2023/09/13 12:06:22;;;;;;;;;;;;;;;33.64;37.77;100423.81;4933760;28;98389;-69
2023/09/13 12:08:48;;;;;;;;;;;;;;;34.25;37.18;100428.28;4925251;28;98038;-76
2023/09/13 12:11:15;;;;;;;;;;;;;;;34.34;37.37;100422.91;4908052;28;98968;-74
2023/09/13 12:13:49;;;;;;;;;;;;;;;34.43;37.35;100421.13;4913815;28;98113;-75
2023/09/13 12:16:16;;;;;;;;;;;;;;;34.50;37.14;100422.97;4933415;28;99483;-70
2023/09/13 12:18:44;;;;;;;;;;;;;;;33.80;38.10;100417.53;4932659;28;99127;-70
2023/09/13 12:21:12;;;;;;;;;;;;;;;33.56;37.93;100416.78;4913142;28;100418;-74
2023/09/13 12:23:43;;;;;;;;;;;;;;;33.70;37.57;100424.91;4921318;28;98129;-74
2023/09/13 12:26:11;;;;;;;;;;;;;;;33.91;37.27;100432.88;4911638;28;99845;-69
2023/09/13 12:28:39;;;;;;;;;;;;;;;33.92;37.37;100431.69;4919723;28;98672;-70
2023/09/13 12:31:06;;;;;;;;;;;;;;;33.97;37.81;100424.81;4912831;28;98340;-69
2023/09/13 12:33:34;;;;;;;;;;;;;;;33.94;37.68;100425.66;4932630;28;98149;-74
2023/09/13 12:36:01;;;;;;;;;;;;;;;33.52;37.83;100428.00;4909774;28;97953;-70
2023/09/13 12:38:53;;;;;;;;;;;;;;;32.73;38.61;100420.00;4911314;28;98172;-74
2023/09/13 12:41:29;;;;;;;;;;;;;;;32.39;39.18;100434.81;4931606;28;100398;-74